sensor_id;sensor_type;location;lat;lon;timestamp;P1;durP1;ratioP1;P2;durP2;ratioP2
20697;SDS011;10508;50.956;4.640;2022-10-31T00:00:30;10.80;;;6.03;;
20697;SDS011;10508;50.956;4.640;2022-10-31T00:02:56;11.45;;;5.90;;
20697;SDS011;10508;50.956;4.640;2022-10-31T00:05:21;13.75;;;6.60;;
20697;SDS011;10508;50.956;4.640;2022-10-31T00:07:47;15.27;;;7.07;;
20697;SDS011;10508;50.956;4.640;2022-10-31T00:10:16;11.27;;;6.47;;
20697;SDS011;10508;50.956;4.640;2022-10-31T00:12:41;15.77;;;7.18;;
20697;SDS011;10508;50.956;4.640;2022-10-31T00:15:07;19.85;;;7.10;;
20697;SDS011;10508;50.956;4.640;2022-10-31T00:17:34;15.40;;;6.78;;
20697;SDS011;10508;50.956;4.640;2022-10-31T00:20:01;14.73;;;7.18;;
20697;SDS011;10508;50.956;4.640;2022-10-31T00:22:26;14.32;;;7.00;;
20697;SDS011;10508;50.956;4.640;2022-10-31T00:24:52;19.30;;;6.10;;
20697;SDS011;10508;50.956;4.640;2022-10-31T00:27:17;15.02;;;6.80;;
20697;SDS011;10508;50.956;4.640;2022-10-31T00:29:43;13.32;;;6.88;;
20697;SDS011;10508;50.956;4.640;2022-10-31T00:32:09;16.20;;;7.55;;
20697;SDS011;10508;50.956;4.640;2022-10-31T00:34:34;19.13;;;8.40;;
20697;SDS011;10508;50.956;4.640;2022-10-31T00:37:00;21.40;;;8.60;;
20697;SDS011;10508;50.956;4.640;2022-10-31T00:39:25;28.00;;;8.13;;
20697;SDS011;10508;50.956;4.640;2022-10-31T00:41:51;15.10;;;7.32;;
20697;SDS011;10508;50.956;4.640;2022-10-31T00:44:16;15.70;;;7.50;;
20697;SDS011;10508;50.956;4.640;2022-10-31T00:46:42;9.82;;;5.35;;
20697;SDS011;10508;50.956;4.640;2022-10-31T00:49:07;12.77;;;5.32;;
20697;SDS011;10508;50.956;4.640;2022-10-31T00:51:33;12.35;;;5.05;;
20697;SDS011;10508;50.956;4.640;2022-10-31T00:53:59;10.88;;;5.03;;
20697;SDS011;10508;50.956;4.640;2022-10-31T00:56:24;13.95;;;5.78;;
20697;SDS011;10508;50.956;4.640;2022-10-31T00:58:50;11.07;;;5.43;;
20697;SDS011;10508;50.956;4.640;2022-10-31T01:01:15;9.80;;;5.97;;
20697;SDS011;10508;50.956;4.640;2022-10-31T01:03:41;10.95;;;6.07;;
20697;SDS011;10508;50.956;4.640;2022-10-31T01:06:07;12.57;;;6.15;;
20697;SDS011;10508;50.956;4.640;2022-10-31T01:08:36;15.55;;;7.25;;
20697;SDS011;10508;50.956;4.640;2022-10-31T01:13:37;12.07;;;6.55;;
20697;SDS011;10508;50.956;4.640;2022-10-31T01:16:03;12.88;;;6.25;;
20697;SDS011;10508;50.956;4.640;2022-10-31T01:18:30;15.02;;;6.78;;
20697;SDS011;10508;50.956;4.640;2022-10-31T01:20:57;13.30;;;6.03;;
20697;SDS011;10508;50.956;4.640;2022-10-31T01:23:24;17.65;;;7.70;;
20697;SDS011;10508;50.956;4.640;2022-10-31T01:25:49;15.82;;;6.22;;
20697;SDS011;10508;50.956;4.640;2022-10-31T01:28:23;9.65;;;4.97;;
20697;SDS011;10508;50.956;4.640;2022-10-31T01:30:48;11.95;;;6.25;;
20697;SDS011;10508;50.956;4.640;2022-10-31T01:33:14;13.23;;;5.57;;
20697;SDS011;10508;50.956;4.640;2022-10-31T01:35:39;13.48;;;5.72;;
20697;SDS011;10508;50.956;4.640;2022-10-31T01:38:05;10.30;;;5.30;;
20697;SDS011;10508;50.956;4.640;2022-10-31T01:40:30;15.02;;;6.32;;
20697;SDS011;10508;50.956;4.640;2022-10-31T01:42:56;13.27;;;6.30;;
20697;SDS011;10508;50.956;4.640;2022-10-31T01:45:22;14.05;;;6.78;;
20697;SDS011;10508;50.956;4.640;2022-10-31T01:47:48;14.25;;;6.22;;
20697;SDS011;10508;50.956;4.640;2022-10-31T01:50:48;13.30;;;6.00;;
20697;SDS011;10508;50.956;4.640;2022-10-31T01:53:09;10.65;;;6.28;;
20697;SDS011;10508;50.956;4.640;2022-10-31T01:55:38;14.93;;;6.03;;
20697;SDS011;10508;50.956;4.640;2022-10-31T01:58:07;12.20;;;5.82;;
20697;SDS011;10508;50.956;4.640;2022-10-31T02:00:36;14.23;;;7.05;;
20697;SDS011;10508;50.956;4.640;2022-10-31T02:03:03;9.35;;;5.63;;
20697;SDS011;10508;50.956;4.640;2022-10-31T02:05:29;20.55;;;6.95;;
20697;SDS011;10508;50.956;4.640;2022-10-31T02:08:02;11.02;;;5.93;;
20697;SDS011;10508;50.956;4.640;2022-10-31T02:10:39;11.43;;;5.53;;
20697;SDS011;10508;50.956;4.640;2022-10-31T02:13:07;14.27;;;6.25;;
20697;SDS011;10508;50.956;4.640;2022-10-31T02:15:34;14.38;;;6.07;;
20697;SDS011;10508;50.956;4.640;2022-10-31T02:18:01;14.35;;;6.05;;
20697;SDS011;10508;50.956;4.640;2022-10-31T02:20:29;12.27;;;6.38;;
20697;SDS011;10508;50.956;4.640;2022-10-31T02:25:59;13.70;;;6.07;;
20697;SDS011;10508;50.956;4.640;2022-10-31T02:33:42;10.88;;;5.05;;
20697;SDS011;10508;50.956;4.640;2022-10-31T02:38:52;9.90;;;5.25;;
20697;SDS011;10508;50.956;4.640;2022-10-31T02:41:56;6.50;;;4.35;;
20697;SDS011;10508;50.956;4.640;2022-10-31T02:47:13;8.43;;;5.35;;
20697;SDS011;10508;50.956;4.640;2022-10-31T02:49:58;11.70;;;5.05;;
20697;SDS011;10508;50.956;4.640;2022-10-31T02:52:28;9.38;;;5.07;;
20697;SDS011;10508;50.956;4.640;2022-10-31T02:54:56;19.25;;;4.93;;
20697;SDS011;10508;50.956;4.640;2022-10-31T02:57:24;8.60;;;4.97;;
20697;SDS011;10508;50.956;4.640;2022-10-31T03:00:00;11.25;;;5.18;;
20697;SDS011;10508;50.956;4.640;2022-10-31T03:03:13;11.93;;;5.22;;
20697;SDS011;10508;50.956;4.640;2022-10-31T03:11:09;11.60;;;5.40;;
20697;SDS011;10508;50.956;4.640;2022-10-31T03:13:46;11.13;;;5.70;;
20697;SDS011;10508;50.956;4.640;2022-10-31T03:21:40;9.48;;;5.00;;
20697;SDS011;10508;50.956;4.640;2022-10-31T03:24:09;10.65;;;4.93;;
20697;SDS011;10508;50.956;4.640;2022-10-31T03:26:38;7.65;;;4.43;;
20697;SDS011;10508;50.956;4.640;2022-10-31T03:29:08;11.30;;;5.40;;
20697;SDS011;10508;50.956;4.640;2022-10-31T03:31:43;10.63;;;5.20;;
20697;SDS011;10508;50.956;4.640;2022-10-31T03:34:14;7.82;;;5.03;;
20697;SDS011;10508;50.956;4.640;2022-10-31T03:36:42;8.85;;;4.35;;
20697;SDS011;10508;50.956;4.640;2022-10-31T03:39:11;12.27;;;4.57;;
20697;SDS011;10508;50.956;4.640;2022-10-31T03:41:41;10.35;;;5.25;;
20697;SDS011;10508;50.956;4.640;2022-10-31T03:44:11;12.70;;;5.10;;
20697;SDS011;10508;50.956;4.640;2022-10-31T03:46:41;10.55;;;5.25;;
20697;SDS011;10508;50.956;4.640;2022-10-31T03:49:08;11.20;;;5.25;;
20697;SDS011;10508;50.956;4.640;2022-10-31T03:54:45;12.98;;;5.32;;
20697;SDS011;10508;50.956;4.640;2022-10-31T03:57:16;12.75;;;5.18;;
20697;SDS011;10508;50.956;4.640;2022-10-31T03:59:52;8.60;;;5.43;;
20697;SDS011;10508;50.956;4.640;2022-10-31T04:02:25;12.65;;;4.63;;
20697;SDS011;10508;50.956;4.640;2022-10-31T04:04:55;10.63;;;5.95;;
20697;SDS011;10508;50.956;4.640;2022-10-31T04:07:22;10.73;;;5.65;;
20697;SDS011;10508;50.956;4.640;2022-10-31T04:09:52;8.48;;;4.93;;
20697;SDS011;10508;50.956;4.640;2022-10-31T04:12:18;11.88;;;5.15;;
20697;SDS011;10508;50.956;4.640;2022-10-31T04:14:46;14.05;;;4.45;;
20697;SDS011;10508;50.956;4.640;2022-10-31T04:17:13;11.60;;;5.53;;
20697;SDS011;10508;50.956;4.640;2022-10-31T04:19:41;10.57;;;5.20;;
20697;SDS011;10508;50.956;4.640;2022-10-31T04:22:06;8.30;;;4.68;;
20697;SDS011;10508;50.956;4.640;2022-10-31T04:24:32;11.30;;;5.22;;
20697;SDS011;10508;50.956;4.640;2022-10-31T04:26:58;10.38;;;4.85;;
20697;SDS011;10508;50.956;4.640;2022-10-31T04:29:23;9.13;;;4.72;;
20697;SDS011;10508;50.956;4.640;2022-10-31T04:31:49;8.98;;;4.97;;
20697;SDS011;10508;50.956;4.640;2022-10-31T04:34:14;12.95;;;5.10;;
20697;SDS011;10508;50.956;4.640;2022-10-31T04:36:40;9.50;;;4.63;;
20697;SDS011;10508;50.956;4.640;2022-10-31T04:39:06;6.57;;;4.20;;
20697;SDS011;10508;50.956;4.640;2022-10-31T04:41:31;8.88;;;4.40;;
20697;SDS011;10508;50.956;4.640;2022-10-31T04:43:57;9.25;;;4.50;;
20697;SDS011;10508;50.956;4.640;2022-10-31T04:46:22;10.73;;;4.78;;
20697;SDS011;10508;50.956;4.640;2022-10-31T04:48:48;7.70;;;4.22;;
20697;SDS011;10508;50.956;4.640;2022-10-31T04:51:14;6.60;;;4.40;;
20697;SDS011;10508;50.956;4.640;2022-10-31T04:53:39;9.80;;;4.35;;
20697;SDS011;10508;50.956;4.640;2022-10-31T04:56:05;9.27;;;4.55;;
20697;SDS011;10508;50.956;4.640;2022-10-31T04:58:31;7.72;;;3.90;;
20697;SDS011;10508;50.956;4.640;2022-10-31T05:00:56;6.40;;;4.28;;
20697;SDS011;10508;50.956;4.640;2022-10-31T05:03:22;8.82;;;4.40;;
20697;SDS011;10508;50.956;4.640;2022-10-31T05:05:48;10.95;;;4.47;;
20697;SDS011;10508;50.956;4.640;2022-10-31T05:08:14;8.25;;;4.20;;
20697;SDS011;10508;50.956;4.640;2022-10-31T05:10:54;6.93;;;4.03;;
20697;SDS011;10508;50.956;4.640;2022-10-31T05:13:20;7.13;;;4.25;;
20697;SDS011;10508;50.956;4.640;2022-10-31T05:15:45;8.02;;;3.65;;
20697;SDS011;10508;50.956;4.640;2022-10-31T05:18:11;7.93;;;4.72;;
20697;SDS011;10508;50.956;4.640;2022-10-31T05:20:36;7.90;;;4.63;;
20697;SDS011;10508;50.956;4.640;2022-10-31T05:23:02;11.13;;;5.13;;
20697;SDS011;10508;50.956;4.640;2022-10-31T05:25:28;8.02;;;4.47;;
20697;SDS011;10508;50.956;4.640;2022-10-31T05:27:54;8.35;;;4.18;;
20697;SDS011;10508;50.956;4.640;2022-10-31T05:30:25;7.90;;;4.32;;
20697;SDS011;10508;50.956;4.640;2022-10-31T05:32:52;8.85;;;4.65;;
20697;SDS011;10508;50.956;4.640;2022-10-31T05:35:22;8.93;;;4.80;;
20697;SDS011;10508;50.956;4.640;2022-10-31T05:37:49;7.63;;;4.80;;
20697;SDS011;10508;50.956;4.640;2022-10-31T05:40:16;6.82;;;3.60;;
20697;SDS011;10508;50.956;4.640;2022-10-31T05:42:42;7.38;;;4.32;;
20697;SDS011;10508;50.956;4.640;2022-10-31T05:45:09;9.77;;;4.97;;
20697;SDS011;10508;50.956;4.640;2022-10-31T05:47:36;11.43;;;5.43;;
20697;SDS011;10508;50.956;4.640;2022-10-31T05:50:02;10.70;;;5.78;;
20697;SDS011;10508;50.956;4.640;2022-10-31T05:52:28;12.20;;;5.47;;
20697;SDS011;10508;50.956;4.640;2022-10-31T05:54:54;13.25;;;5.95;;
20697;SDS011;10508;50.956;4.640;2022-10-31T05:57:19;12.02;;;5.78;;
20697;SDS011;10508;50.956;4.640;2022-10-31T05:59:45;12.82;;;5.78;;
20697;SDS011;10508;50.956;4.640;2022-10-31T06:02:10;13.55;;;6.05;;
20697;SDS011;10508;50.956;4.640;2022-10-31T06:04:36;11.02;;;5.63;;
20697;SDS011;10508;50.956;4.640;2022-10-31T06:07:01;16.55;;;7.22;;
20697;SDS011;10508;50.956;4.640;2022-10-31T06:09:27;16.98;;;6.70;;
20697;SDS011;10508;50.956;4.640;2022-10-31T06:11:53;11.68;;;5.93;;
20697;SDS011;10508;50.956;4.640;2022-10-31T06:14:18;13.98;;;6.13;;
20697;SDS011;10508;50.956;4.640;2022-10-31T06:16:44;13.45;;;6.45;;
20697;SDS011;10508;50.956;4.640;2022-10-31T06:19:09;15.77;;;7.03;;
20697;SDS011;10508;50.956;4.640;2022-10-31T06:21:53;16.85;;;6.68;;
20697;SDS011;10508;50.956;4.640;2022-10-31T06:24:19;13.55;;;6.53;;
20697;SDS011;10508;50.956;4.640;2022-10-31T06:26:44;15.93;;;7.65;;
20697;SDS011;10508;50.956;4.640;2022-10-31T06:29:10;14.90;;;6.25;;
20697;SDS011;10508;50.956;4.640;2022-10-31T06:31:35;12.48;;;5.78;;
20697;SDS011;10508;50.956;4.640;2022-10-31T06:34:01;18.83;;;8.25;;
20697;SDS011;10508;50.956;4.640;2022-10-31T06:36:26;17.08;;;8.07;;
20697;SDS011;10508;50.956;4.640;2022-10-31T06:38:52;16.40;;;7.68;;
20697;SDS011;10508;50.956;4.640;2022-10-31T06:41:17;10.48;;;6.45;;
20697;SDS011;10508;50.956;4.640;2022-10-31T06:43:45;12.02;;;6.03;;
20697;SDS011;10508;50.956;4.640;2022-10-31T06:46:12;17.52;;;7.28;;
20697;SDS011;10508;50.956;4.640;2022-10-31T06:48:37;14.05;;;7.38;;
20697;SDS011;10508;50.956;4.640;2022-10-31T06:51:04;13.57;;;6.75;;
20697;SDS011;10508;50.956;4.640;2022-10-31T06:53:30;16.23;;;6.53;;
20697;SDS011;10508;50.956;4.640;2022-10-31T06:55:56;14.40;;;6.80;;
20697;SDS011;10508;50.956;4.640;2022-10-31T06:58:22;17.42;;;7.03;;
20697;SDS011;10508;50.956;4.640;2022-10-31T07:00:48;14.63;;;6.93;;
20697;SDS011;10508;50.956;4.640;2022-10-31T07:03:14;14.48;;;7.45;;
20697;SDS011;10508;50.956;4.640;2022-10-31T07:05:41;15.77;;;6.82;;
20697;SDS011;10508;50.956;4.640;2022-10-31T07:08:08;13.73;;;6.93;;
20697;SDS011;10508;50.956;4.640;2022-10-31T07:10:36;25.55;;;7.70;;
20697;SDS011;10508;50.956;4.640;2022-10-31T07:13:04;15.98;;;7.30;;
20697;SDS011;10508;50.956;4.640;2022-10-31T07:15:35;19.02;;;7.15;;
20697;SDS011;10508;50.956;4.640;2022-10-31T07:18:02;16.70;;;7.55;;
20697;SDS011;10508;50.956;4.640;2022-10-31T07:20:30;13.25;;;7.07;;
20697;SDS011;10508;50.956;4.640;2022-10-31T07:22:56;12.30;;;7.13;;
20697;SDS011;10508;50.956;4.640;2022-10-31T07:25:22;16.77;;;7.32;;
20697;SDS011;10508;50.956;4.640;2022-10-31T07:27:48;21.45;;;7.20;;
20697;SDS011;10508;50.956;4.640;2022-10-31T07:30:14;15.60;;;7.63;;
20697;SDS011;10508;50.956;4.640;2022-10-31T07:32:48;15.23;;;7.43;;
20697;SDS011;10508;50.956;4.640;2022-10-31T07:35:16;13.88;;;7.13;;
20697;SDS011;10508;50.956;4.640;2022-10-31T07:37:44;21.60;;;8.80;;
20697;SDS011;10508;50.956;4.640;2022-10-31T07:40:10;22.95;;;9.25;;
20697;SDS011;10508;50.956;4.640;2022-10-31T07:42:37;17.95;;;8.38;;
20697;SDS011;10508;50.956;4.640;2022-10-31T07:45:04;19.42;;;8.23;;
20697;SDS011;10508;50.956;4.640;2022-10-31T07:47:39;14.88;;;7.35;;
20697;SDS011;10508;50.956;4.640;2022-10-31T07:50:06;21.45;;;8.07;;
20697;SDS011;10508;50.956;4.640;2022-10-31T07:52:33;31.92;;;10.00;;
20697;SDS011;10508;50.956;4.640;2022-10-31T07:54:59;23.23;;;9.85;;
20697;SDS011;10508;50.956;4.640;2022-10-31T07:57:27;20.15;;;9.30;;
20697;SDS011;10508;50.956;4.640;2022-10-31T07:59:53;31.55;;;10.48;;
20697;SDS011;10508;50.956;4.640;2022-10-31T08:02:19;19.98;;;9.02;;
20697;SDS011;10508;50.956;4.640;2022-10-31T08:04:45;28.80;;;10.55;;
20697;SDS011;10508;50.956;4.640;2022-10-31T08:07:10;21.83;;;8.95;;
20697;SDS011;10508;50.956;4.640;2022-10-31T08:09:36;23.70;;;10.13;;
20697;SDS011;10508;50.956;4.640;2022-10-31T08:12:01;19.15;;;9.73;;
20697;SDS011;10508;50.956;4.640;2022-10-31T08:14:27;17.13;;;9.13;;
20697;SDS011;10508;50.956;4.640;2022-10-31T08:16:53;19.23;;;8.35;;
20697;SDS011;10508;50.956;4.640;2022-10-31T08:19:19;16.55;;;8.85;;
20697;SDS011;10508;50.956;4.640;2022-10-31T08:21:45;19.20;;;8.52;;
20697;SDS011;10508;50.956;4.640;2022-10-31T08:24:10;19.65;;;8.93;;
20697;SDS011;10508;50.956;4.640;2022-10-31T08:26:36;16.88;;;8.05;;
20697;SDS011;10508;50.956;4.640;2022-10-31T08:29:02;22.05;;;9.25;;
20697;SDS011;10508;50.956;4.640;2022-10-31T08:31:28;19.67;;;9.40;;
20697;SDS011;10508;50.956;4.640;2022-10-31T08:33:54;19.77;;;8.27;;
20697;SDS011;10508;50.956;4.640;2022-10-31T08:36:20;20.13;;;9.10;;
20697;SDS011;10508;50.956;4.640;2022-10-31T08:38:46;20.77;;;9.13;;
20697;SDS011;10508;50.956;4.640;2022-10-31T08:41:12;22.48;;;9.82;;
20697;SDS011;10508;50.956;4.640;2022-10-31T08:43:38;19.88;;;9.75;;
20697;SDS011;10508;50.956;4.640;2022-10-31T08:46:03;23.88;;;10.02;;
20697;SDS011;10508;50.956;4.640;2022-10-31T08:48:29;19.38;;;8.63;;
20697;SDS011;10508;50.956;4.640;2022-10-31T08:50:58;18.60;;;9.93;;
20697;SDS011;10508;50.956;4.640;2022-10-31T08:53:24;24.08;;;9.95;;
20697;SDS011;10508;50.956;4.640;2022-10-31T08:55:50;21.40;;;10.35;;
20697;SDS011;10508;50.956;4.640;2022-10-31T08:58:19;20.50;;;9.13;;
20697;SDS011;10508;50.956;4.640;2022-10-31T09:00:46;17.33;;;9.07;;
20697;SDS011;10508;50.956;4.640;2022-10-31T09:03:14;23.65;;;9.95;;
20697;SDS011;10508;50.956;4.640;2022-10-31T09:05:41;24.95;;;9.57;;
20697;SDS011;10508;50.956;4.640;2022-10-31T09:08:07;23.10;;;11.00;;
20697;SDS011;10508;50.956;4.640;2022-10-31T09:10:34;22.08;;;9.57;;
20697;SDS011;10508;50.956;4.640;2022-10-31T09:13:02;23.35;;;10.50;;
20697;SDS011;10508;50.956;4.640;2022-10-31T09:15:39;22.10;;;10.27;;
20697;SDS011;10508;50.956;4.640;2022-10-31T09:18:07;20.80;;;10.20;;
20697;SDS011;10508;50.956;4.640;2022-10-31T09:20:34;23.50;;;11.15;;
20697;SDS011;10508;50.956;4.640;2022-10-31T09:23:01;20.73;;;9.55;;
20697;SDS011;10508;50.956;4.640;2022-10-31T09:25:27;23.73;;;11.30;;
20697;SDS011;10508;50.956;4.640;2022-10-31T09:27:57;32.67;;;11.25;;
20697;SDS011;10508;50.956;4.640;2022-10-31T09:30:24;29.77;;;13.45;;
20697;SDS011;10508;50.956;4.640;2022-10-31T09:32:54;20.52;;;9.95;;
20697;SDS011;10508;50.956;4.640;2022-10-31T09:35:24;28.70;;;11.48;;
20697;SDS011;10508;50.956;4.640;2022-10-31T09:37:54;19.48;;;9.95;;
20697;SDS011;10508;50.956;4.640;2022-10-31T09:40:21;31.90;;;11.60;;
20697;SDS011;10508;50.956;4.640;2022-10-31T09:42:55;29.77;;;11.32;;
20697;SDS011;10508;50.956;4.640;2022-10-31T09:45:39;29.83;;;11.45;;
20697;SDS011;10508;50.956;4.640;2022-10-31T09:51:13;22.38;;;11.30;;
20697;SDS011;10508;50.956;4.640;2022-10-31T09:53:54;28.73;;;10.88;;
20697;SDS011;10508;50.956;4.640;2022-10-31T09:56:31;28.88;;;11.63;;
20697;SDS011;10508;50.956;4.640;2022-10-31T09:58:58;24.15;;;11.15;;
20697;SDS011;10508;50.956;4.640;2022-10-31T10:03:53;34.58;;;12.50;;
20697;SDS011;10508;50.956;4.640;2022-10-31T10:06:23;22.00;;;10.43;;
20697;SDS011;10508;50.956;4.640;2022-10-31T10:08:52;22.48;;;10.18;;
20697;SDS011;10508;50.956;4.640;2022-10-31T10:25:39;23.58;;;11.60;;
20697;SDS011;10508;50.956;4.640;2022-10-31T10:30:44;19.48;;;10.32;;
20697;SDS011;10508;50.956;4.640;2022-10-31T10:33:32;31.15;;;11.10;;
20697;SDS011;10508;50.956;4.640;2022-10-31T10:36:21;24.05;;;10.35;;
20697;SDS011;10508;50.956;4.640;2022-10-31T10:38:58;23.48;;;12.23;;
20697;SDS011;10508;50.956;4.640;2022-10-31T10:41:47;36.45;;;11.95;;
20697;SDS011;10508;50.956;4.640;2022-10-31T10:44:33;27.08;;;11.07;;
20697;SDS011;10508;50.956;4.640;2022-10-31T10:47:21;27.02;;;11.02;;
20697;SDS011;10508;50.956;4.640;2022-10-31T10:50:02;23.67;;;10.65;;
20697;SDS011;10508;50.956;4.640;2022-10-31T10:53:15;25.30;;;11.25;;
20697;SDS011;10508;50.956;4.640;2022-10-31T10:58:40;33.47;;;11.77;;
20697;SDS011;10508;50.956;4.640;2022-10-31T11:01:14;20.58;;;10.00;;
20697;SDS011;10508;50.956;4.640;2022-10-31T11:03:40;28.02;;;10.13;;
20697;SDS011;10508;50.956;4.640;2022-10-31T11:06:18;21.00;;;9.65;;
20697;SDS011;10508;50.956;4.640;2022-10-31T11:08:51;24.77;;;10.60;;
20697;SDS011;10508;50.956;4.640;2022-10-31T11:13:46;17.75;;;8.60;;
20697;SDS011;10508;50.956;4.640;2022-10-31T11:16:36;16.55;;;8.50;;
20697;SDS011;10508;50.956;4.640;2022-10-31T11:21:45;19.85;;;8.60;;
20697;SDS011;10508;50.956;4.640;2022-10-31T11:24:13;17.05;;;8.73;;
20697;SDS011;10508;50.956;4.640;2022-10-31T11:26:40;17.58;;;8.05;;
20697;SDS011;10508;50.956;4.640;2022-10-31T11:29:12;15.02;;;7.35;;
20697;SDS011;10508;50.956;4.640;2022-10-31T11:31:50;18.83;;;7.28;;
20697;SDS011;10508;50.956;4.640;2022-10-31T11:34:30;17.58;;;7.80;;
20697;SDS011;10508;50.956;4.640;2022-10-31T11:37:04;18.05;;;7.72;;
20697;SDS011;10508;50.956;4.640;2022-10-31T11:39:43;16.33;;;6.93;;
20697;SDS011;10508;50.956;4.640;2022-10-31T11:42:10;17.92;;;6.95;;
20697;SDS011;10508;50.956;4.640;2022-10-31T11:44:36;27.85;;;7.60;;
20697;SDS011;10508;50.956;4.640;2022-10-31T11:47:10;18.15;;;7.20;;
20697;SDS011;10508;50.956;4.640;2022-10-31T11:49:39;16.42;;;6.13;;
20697;SDS011;10508;50.956;4.640;2022-10-31T11:57:46;11.73;;;5.68;;
20697;SDS011;10508;50.956;4.640;2022-10-31T12:00:23;14.30;;;6.03;;
20697;SDS011;10508;50.956;4.640;2022-10-31T12:05:47;21.10;;;6.32;;
20697;SDS011;10508;50.956;4.640;2022-10-31T12:08:23;12.07;;;5.13;;
20697;SDS011;10508;50.956;4.640;2022-10-31T12:13:33;10.38;;;4.63;;
20697;SDS011;10508;50.956;4.640;2022-10-31T12:16:18;19.33;;;5.07;;
20697;SDS011;10508;50.956;4.640;2022-10-31T12:24:35;16.95;;;5.00;;
20697;SDS011;10508;50.956;4.640;2022-10-31T12:46:16;12.60;;;4.85;;
20697;SDS011;10508;50.956;4.640;2022-10-31T12:49:19;14.07;;;4.95;;
20697;SDS011;10508;50.956;4.640;2022-10-31T12:52:14;9.93;;;4.97;;
20697;SDS011;10508;50.956;4.640;2022-10-31T12:54:51;16.52;;;5.22;;
20697;SDS011;10508;50.956;4.640;2022-10-31T12:57:23;19.60;;;5.03;;
20697;SDS011;10508;50.956;4.640;2022-10-31T13:00:13;45.25;;;8.15;;
20697;SDS011;10508;50.956;4.640;2022-10-31T13:05:51;10.05;;;3.97;;
20697;SDS011;10508;50.956;4.640;2022-10-31T13:08:34;8.73;;;4.53;;
20697;SDS011;10508;50.956;4.640;2022-10-31T13:11:19;14.25;;;4.53;;
20697;SDS011;10508;50.956;4.640;2022-10-31T13:13:53;11.57;;;3.70;;
20697;SDS011;10508;50.956;4.640;2022-10-31T13:16:20;12.20;;;4.72;;
20697;SDS011;10508;50.956;4.640;2022-10-31T13:18:53;19.20;;;4.70;;
20697;SDS011;10508;50.956;4.640;2022-10-31T13:21:23;13.35;;;5.00;;
20697;SDS011;10508;50.956;4.640;2022-10-31T13:23:52;17.55;;;4.90;;
20697;SDS011;10508;50.956;4.640;2022-10-31T13:29:13;9.98;;;4.07;;
20697;SDS011;10508;50.956;4.640;2022-10-31T13:31:53;10.57;;;4.75;;
20697;SDS011;10508;50.956;4.640;2022-10-31T13:34:36;10.23;;;4.32;;
20697;SDS011;10508;50.956;4.640;2022-10-31T13:37:13;15.43;;;5.10;;
20697;SDS011;10508;50.956;4.640;2022-10-31T13:45:15;13.35;;;4.57;;
20697;SDS011;10508;50.956;4.640;2022-10-31T13:47:42;13.43;;;4.80;;
20697;SDS011;10508;50.956;4.640;2022-10-31T13:50:21;11.77;;;4.32;;
20697;SDS011;10508;50.956;4.640;2022-10-31T13:52:48;8.48;;;4.22;;
20697;SDS011;10508;50.956;4.640;2022-10-31T13:58:05;12.63;;;4.32;;
20697;SDS011;10508;50.956;4.640;2022-10-31T14:03:40;10.40;;;4.68;;
20697;SDS011;10508;50.956;4.640;2022-10-31T14:06:07;7.53;;;4.65;;
20697;SDS011;10508;50.956;4.640;2022-10-31T14:08:36;21.70;;;6.80;;
20697;SDS011;10508;50.956;4.640;2022-10-31T14:11:06;24.40;;;5.28;;
20697;SDS011;10508;50.956;4.640;2022-10-31T14:13:35;14.13;;;4.38;;
20697;SDS011;10508;50.956;4.640;2022-10-31T14:16:26;11.75;;;3.72;;
20697;SDS011;10508;50.956;4.640;2022-10-31T14:19:00;12.35;;;4.65;;
20697;SDS011;10508;50.956;4.640;2022-10-31T14:23:54;13.57;;;4.28;;
20697;SDS011;10508;50.956;4.640;2022-10-31T14:26:29;9.90;;;4.80;;
20697;SDS011;10508;50.956;4.640;2022-10-31T14:28:58;14.43;;;4.95;;
20697;SDS011;10508;50.956;4.640;2022-10-31T14:37:07;13.98;;;5.22;;
20697;SDS011;10508;50.956;4.640;2022-10-31T14:42:19;41.88;;;7.22;;
20697;SDS011;10508;50.956;4.640;2022-10-31T14:50:54;16.70;;;5.70;;
20697;SDS011;10508;50.956;4.640;2022-10-31T14:55:52;13.73;;;5.65;;
20697;SDS011;10508;50.956;4.640;2022-10-31T14:58:21;16.67;;;6.10;;
20697;SDS011;10508;50.956;4.640;2022-10-31T15:01:15;16.42;;;6.35;;
20697;SDS011;10508;50.956;4.640;2022-10-31T15:03:44;18.63;;;6.40;;
20697;SDS011;10508;50.956;4.640;2022-10-31T15:06:12;15.25;;;5.88;;
20697;SDS011;10508;50.956;4.640;2022-10-31T15:08:45;15.20;;;5.55;;
20697;SDS011;10508;50.956;4.640;2022-10-31T15:11:19;15.77;;;6.47;;
20697;SDS011;10508;50.956;4.640;2022-10-31T15:13:46;14.57;;;6.43;;
20697;SDS011;10508;50.956;4.640;2022-10-31T15:16:12;17.10;;;6.18;;
20697;SDS011;10508;50.956;4.640;2022-10-31T15:18:59;13.77;;;5.80;;
20697;SDS011;10508;50.956;4.640;2022-10-31T15:21:53;16.40;;;5.55;;
20697;SDS011;10508;50.956;4.640;2022-10-31T15:24:20;13.85;;;5.72;;
20697;SDS011;10508;50.956;4.640;2022-10-31T15:26:52;21.58;;;6.78;;
20697;SDS011;10508;50.956;4.640;2022-10-31T15:29:20;18.83;;;6.45;;
20697;SDS011;10508;50.956;4.640;2022-10-31T15:31:55;13.75;;;6.43;;
20697;SDS011;10508;50.956;4.640;2022-10-31T15:34:36;14.63;;;6.40;;
20697;SDS011;10508;50.956;4.640;2022-10-31T15:37:04;16.52;;;6.90;;
20697;SDS011;10508;50.956;4.640;2022-10-31T15:39:34;19.58;;;6.18;;
20697;SDS011;10508;50.956;4.640;2022-10-31T15:42:00;11.63;;;5.97;;
20697;SDS011;10508;50.956;4.640;2022-10-31T15:44:27;13.40;;;6.35;;
20697;SDS011;10508;50.956;4.640;2022-10-31T15:47:02;17.77;;;6.28;;
20697;SDS011;10508;50.956;4.640;2022-10-31T15:54:50;14.00;;;6.22;;
20697;SDS011;10508;50.956;4.640;2022-10-31T15:57:18;16.40;;;6.50;;
20697;SDS011;10508;50.956;4.640;2022-10-31T15:59:47;17.17;;;6.25;;
20697;SDS011;10508;50.956;4.640;2022-10-31T16:02:14;15.35;;;7.00;;
20697;SDS011;10508;50.956;4.640;2022-10-31T16:04:48;20.25;;;6.75;;
20697;SDS011;10508;50.956;4.640;2022-10-31T16:07:15;23.45;;;6.97;;
20697;SDS011;10508;50.956;4.640;2022-10-31T16:09:50;19.92;;;7.32;;
20697;SDS011;10508;50.956;4.640;2022-10-31T16:12:15;13.25;;;6.75;;
20697;SDS011;10508;50.956;4.640;2022-10-31T16:14:41;19.25;;;6.45;;
20697;SDS011;10508;50.956;4.640;2022-10-31T16:17:10;16.95;;;6.00;;
20697;SDS011;10508;50.956;4.640;2022-10-31T16:22:29;17.48;;;7.20;;
20697;SDS011;10508;50.956;4.640;2022-10-31T16:27:39;23.42;;;6.82;;
20697;SDS011;10508;50.956;4.640;2022-10-31T16:33:04;13.60;;;6.95;;
20697;SDS011;10508;50.956;4.640;2022-10-31T16:35:44;20.50;;;6.93;;
20697;SDS011;10508;50.956;4.640;2022-10-31T16:38:10;21.65;;;7.47;;
20697;SDS011;10508;50.956;4.640;2022-10-31T16:40:37;16.23;;;7.20;;
20697;SDS011;10508;50.956;4.640;2022-10-31T16:43:03;15.18;;;6.53;;
20697;SDS011;10508;50.956;4.640;2022-10-31T16:45:30;15.02;;;6.25;;
20697;SDS011;10508;50.956;4.640;2022-10-31T16:48:08;31.60;;;7.28;;
20697;SDS011;10508;50.956;4.640;2022-10-31T16:50:36;24.83;;;8.57;;
20697;SDS011;10508;50.956;4.640;2022-10-31T16:53:03;16.67;;;7.20;;
20697;SDS011;10508;50.956;4.640;2022-10-31T16:55:29;12.98;;;6.85;;
20697;SDS011;10508;50.956;4.640;2022-10-31T16:57:55;14.30;;;6.15;;
20697;SDS011;10508;50.956;4.640;2022-10-31T17:00:22;14.18;;;7.00;;
20697;SDS011;10508;50.956;4.640;2022-10-31T17:02:51;19.42;;;6.50;;
20697;SDS011;10508;50.956;4.640;2022-10-31T17:05:18;21.15;;;7.38;;
20697;SDS011;10508;50.956;4.640;2022-10-31T17:07:46;17.40;;;7.90;;
20697;SDS011;10508;50.956;4.640;2022-10-31T17:10:12;14.68;;;7.47;;
20697;SDS011;10508;50.956;4.640;2022-10-31T17:12:40;17.27;;;7.75;;
20697;SDS011;10508;50.956;4.640;2022-10-31T17:17:50;17.65;;;6.60;;
20697;SDS011;10508;50.956;4.640;2022-10-31T17:20:21;22.40;;;8.43;;